Ireland West Airport Knock, Ireland

11:43 PM IST on August 04, 2015 (GMT +0100)
Charlestown | | Change Station
CLOSE
Current Station
Personal Weather Station
Location: Charlestown, MAYO
Elevation: 233 ft
Nearby Weather Stations

Elev 233 ft 53.96 °N, 8.79 °W | Updated 14 seconds ago

Overcast
Overcast
54.0 °F
Feels Like 54.0 °F
N
4.5
Wind Variable Wind from South
Gusts 13.6 mph

Today
High -- | Low -- °F
--% Chance of Precip.
Yesterday
High -- | Low -- °F
Precip. -- in
5:53 AM 9:28 PM
Waning Gibbous, 74% visible
Pressure 29.68 in
Visibility 5.0 miles
Clouds Scattered Clouds 2600 ft
Overcast 3400 ft
Dew Point 49 °F
Humidity 84%
Rainfall 0.41 in
Snow Depth Not available.
UV 0 out of 12
Pollen Not available.
Air Quality Not available.
Flu Activity Not available.
METAR EISG 042030Z 20008KT 180V240 8000 SCT026 OVC034 13/11 Q1005

More Conditions Fewer Conditions

Pressure 29.68 in
Visibility 5.0 miles
Clouds Scattered Clouds 2600 ft
Overcast 3400 ft
Dew Point 49 °F
Humidity 84%
Rainfall 0.41 in
Snow Depth Not available.
UV 0 out of 12
Pollen Not available.
Air Quality Not available.
Flu Activity Not available.
METAR EISG 042030Z 20008KT 180V240 8000 SCT026 OVC034 13/11 Q1005

More Conditions Fewer Conditions

10-Day Weather Forecast

×

Almanac

Astronomy

Aug. 04, 2015 Rise Set
Actual Time
Civil Twilight
Nautical Twilight
Astronomical Twilight
Moon
Length of Visible Light
Length of Day
Tomorrow will be .
, % of the Moon is Illuminated

Today's Extremes

Country Highs Country Lows

Community

WunderPhotos

Upload Photos

1,844,011 photos uploaded!

WunderBlogs® & News

Nearby

Air Quality

  Air Quality AQ Index Pollutant
Not available.

Snow Depth

Station Depth Elevation

Earthquake Activity

City Distance Mag. Time & Date
Minimum magnitude displayed is 2.5.

Coastal Water Temperatures

Place Temperature

Stations

Nearby Weather Stations

Station Location Temp. Windchill Dew Point Humidity Wind Precip. Elev Updated Type